createdAt,value
2022-08-05T00:00:46.352Z,49.28
2022-08-05T00:01:48.479Z,52.63
2022-08-05T00:02:39.652Z,56.83
2022-08-05T00:03:38.548Z,52.25
2022-08-05T00:04:40.276Z,53.54
2022-08-05T00:06:04.637Z,51.78
2022-08-05T00:06:39.543Z,50.78
2022-08-05T00:08:00.397Z,53.90
2022-08-05T00:08:39.493Z,55.51
2022-08-05T00:09:38.485Z,52.14
2022-08-05T00:10:39.486Z,56.24
2022-08-05T00:11:49.244Z,55.57
2022-08-05T00:12:55.866Z,56.13
2022-08-05T00:13:40.128Z,56.33
2022-08-05T00:14:38.476Z,59.26
2022-08-05T00:15:56.050Z,57.47
2022-08-05T00:16:52.622Z,57.17
2022-08-05T00:17:39.427Z,52.71
2022-08-05T00:18:38.437Z,52.87
2022-08-05T00:19:44.153Z,53.43
2022-08-05T00:20:39.397Z,53.76
2022-08-05T00:21:38.382Z,57.68
2022-08-05T00:22:38.379Z,56.09
2022-08-05T00:23:46.267Z,55.51
2022-08-05T00:24:42.473Z,52.24
2022-08-05T00:25:45.678Z,56.51
2022-08-05T00:26:39.350Z,58.14
2022-08-05T00:27:39.612Z,50.62
2022-08-05T00:28:38.336Z,53.72
2022-08-05T00:29:38.529Z,54.88
2022-08-05T00:30:38.321Z,57.83
2022-08-05T00:31:54.035Z,53.18
2022-08-05T00:32:39.319Z,53.68
2022-08-05T00:34:56.488Z,53.22
2022-08-05T00:34:56.993Z,52.17
2022-08-05T00:36:15.208Z,54.83
2022-08-05T00:37:10.544Z,58.60
2022-08-05T00:37:52.860Z,52.32
2022-08-05T00:38:39.260Z,54.41
2022-08-05T00:39:44.461Z,55.78
2022-08-05T00:40:39.246Z,49.81
2022-08-05T00:41:51.421Z,55.21
2022-08-05T00:42:39.207Z,57.29
2022-08-05T00:43:47.101Z,58.05
2022-08-05T00:44:39.195Z,56.73
2022-08-05T00:45:43.838Z,52.75
2022-08-05T00:46:43.561Z,51.85
2022-08-05T00:47:57.169Z,53.54
2022-08-05T00:48:50.476Z,43.80
2022-08-05T00:49:51.066Z,51.60
2022-08-05T00:50:39.192Z,53.84
2022-08-05T00:51:51.540Z,51.78
2022-08-05T00:52:39.224Z,58.10
2022-08-05T00:54:01.026Z,51.17
2022-08-05T00:54:39.126Z,56.04
2022-08-05T00:55:42.763Z,53.03
2022-08-05T00:56:39.113Z,51.96
2022-08-05T00:57:58.127Z,50.66
2022-08-05T00:58:39.085Z,52.56
2022-08-05T00:59:44.529Z,52.12
2022-08-05T01:00:39.107Z,52.83
2022-08-05T01:01:42.815Z,50.76
2022-08-05T01:02:39.074Z,55.34
2022-08-05T01:03:38.034Z,54.78
2022-08-05T01:04:38.038Z,52.36
2022-08-05T01:05:38.025Z,46.30
2022-08-05T01:06:38.038Z,50.65
2022-08-05T01:07:37.994Z,54.85
2022-08-05T01:08:43.366Z,52.78
2022-08-05T01:09:38.993Z,51.22
2022-08-05T01:10:37.980Z,53.77
2022-08-05T01:11:37.956Z,50.94
2022-08-05T01:12:37.964Z,52.21
2022-08-05T01:13:58.715Z,47.93
2022-08-05T01:14:38.934Z,49.42
2022-08-05T01:15:37.943Z,49.20
2022-08-05T01:16:38.931Z,54.68
2022-08-05T01:17:40.278Z,51.13
2022-08-05T01:18:38.908Z,54.48
2022-08-05T01:20:02.340Z,52.74
2022-08-05T01:20:38.909Z,55.72
2022-08-05T01:21:38.570Z,52.35
2022-08-05T01:22:37.882Z,51.29
2022-08-05T01:23:37.865Z,55.06
2022-08-05T01:24:37.880Z,51.49
2022-08-05T01:25:40.478Z,52.96
2022-08-05T01:26:38.107Z,55.34
2022-08-05T01:27:50.619Z,51.21
2022-08-05T01:28:39.537Z,57.38
2022-08-05T01:29:37.829Z,50.84
2022-08-05T01:30:38.837Z,53.94
2022-08-05T01:31:42.699Z,50.48
2022-08-05T01:32:38.842Z,52.49
2022-08-05T01:33:37.812Z,53.35
2022-08-05T01:34:37.796Z,47.34
2022-08-05T01:35:50.837Z,55.54
2022-08-05T01:36:42.129Z,52.33
2022-08-05T01:37:44.320Z,58.46
2022-08-05T01:38:38.751Z,55.05
2022-08-05T01:39:47.311Z,56.81
2022-08-05T01:40:38.734Z,56.54
2022-08-05T01:41:37.740Z,53.77
2022-08-05T01:42:37.718Z,53.49
2022-08-05T01:43:37.709Z,55.04
2022-08-05T01:44:37.693Z,51.61
2022-08-05T01:45:42.800Z,55.38
2022-08-05T01:46:42.579Z,57.08
2022-08-05T01:47:43.142Z,56.21
2022-08-05T01:48:37.653Z,55.24
2022-08-05T01:50:00.398Z,55.52
2022-08-05T01:50:38.635Z,52.10
2022-08-05T01:51:37.641Z,54.91
2022-08-05T01:52:37.647Z,51.47
2022-08-05T01:53:57.534Z,50.99
2022-08-05T01:54:45.888Z,58.99
2022-08-05T01:55:38.676Z,55.67
2022-08-05T01:58:09.943Z,56.02
2022-08-05T01:58:12.153Z,55.06
2022-08-05T01:58:44.699Z,55.42
2022-08-05T01:59:38.569Z,58.08
2022-08-05T02:00:37.562Z,57.14
2022-08-05T02:01:40.222Z,55.16
2022-08-05T02:02:37.773Z,53.96
2022-08-05T02:03:38.553Z,51.86
2022-08-05T02:04:37.590Z,55.20
2022-08-05T02:05:37.511Z,50.51
2022-08-05T02:06:39.071Z,53.75
2022-08-05T02:07:37.490Z,48.92
2022-08-05T02:08:40.956Z,54.99
2022-08-05T02:09:38.503Z,50.18
2022-08-05T02:10:37.475Z,51.67
2022-08-05T02:11:37.493Z,50.77
2022-08-05T02:12:37.458Z,51.61
2022-08-05T02:13:53.383Z,57.38
2022-08-05T02:14:38.452Z,52.65
2022-08-05T02:15:37.489Z,56.00
2022-08-05T02:16:37.450Z,57.52
2022-08-05T02:18:30.820Z,53.12
2022-08-05T02:18:41.941Z,52.96
2022-08-05T02:19:46.900Z,59.32
2022-08-05T02:20:38.932Z,63.24
2022-08-05T02:21:40.331Z,53.16
2022-08-05T02:22:38.398Z,62.43
2022-08-05T02:23:37.366Z,67.59
2022-08-05T02:24:37.371Z,68.66
2022-08-05T02:25:49.184Z,70.21
2022-08-05T02:26:38.341Z,68.14
2022-08-05T02:27:59.810Z,71.40
2022-08-05T02:28:41.641Z,73.38
2022-08-05T02:29:59.782Z,69.39
2022-08-05T02:30:38.306Z,68.93
2022-08-05T02:31:38.301Z,70.80
2022-08-05T02:32:37.291Z,68.95
2022-08-05T02:33:38.285Z,66.77
2022-08-05T02:34:37.329Z,66.54
2022-08-05T02:35:38.120Z,63.34
2022-08-05T02:36:38.251Z,67.22
2022-08-05T02:37:37.236Z,69.10
2022-08-05T02:38:37.256Z,66.86
2022-08-05T02:39:37.274Z,71.36
2022-08-05T02:40:37.834Z,69.79
2022-08-05T02:41:57.908Z,64.89
2022-08-05T02:42:38.202Z,67.89
2022-08-05T02:43:37.195Z,64.31
2022-08-05T02:44:38.203Z,60.51
2022-08-05T02:45:51.968Z,62.69
2022-08-05T02:46:53.850Z,61.33
2022-08-05T02:48:06.670Z,60.80
2022-08-05T02:48:38.144Z,64.64
2022-08-05T02:49:37.926Z,63.11
2022-08-05T02:50:37.147Z,63.58
2022-08-05T02:52:03.206Z,63.00
2022-08-05T02:52:38.166Z,60.01
2022-08-05T02:53:39.281Z,60.76
2022-08-05T02:54:37.499Z,61.91
2022-08-05T02:55:54.065Z,58.97
2022-08-05T02:56:38.124Z,64.96
2022-08-05T02:58:12.049Z,60.04
2022-08-05T02:58:38.058Z,66.09
2022-08-05T02:59:50.322Z,65.62
2022-08-05T03:00:38.046Z,65.74
2022-08-05T03:01:37.083Z,64.25
2022-08-05T03:02:37.025Z,63.50
2022-08-05T03:04:02.222Z,60.23
2022-08-05T03:04:38.010Z,61.78
2022-08-05T03:06:54.113Z,59.03
2022-08-05T03:06:56.736Z,58.46
2022-08-05T03:08:00.316Z,55.45
2022-08-05T03:08:38.012Z,60.03
2022-08-05T03:09:38.112Z,60.80
2022-08-05T03:10:36.993Z,60.73
2022-08-05T03:11:54.469Z,62.86
2022-08-05T03:12:37.963Z,52.67
2022-08-05T03:13:52.252Z,59.72
2022-08-05T03:14:45.749Z,58.95
2022-08-05T03:15:37.928Z,62.41
2022-08-05T03:16:36.934Z,58.56
2022-08-05T03:17:41.508Z,61.60
2022-08-05T03:18:37.925Z,61.20
2022-08-05T03:19:36.900Z,58.40
2022-08-05T03:20:36.880Z,58.69
2022-08-05T03:21:41.506Z,64.21
2022-08-05T03:22:37.939Z,60.21
2022-08-05T03:23:37.868Z,60.00
2022-08-05T03:24:36.868Z,62.61
2022-08-05T03:26:04.683Z,58.88
2022-08-05T03:26:37.845Z,60.58
2022-08-05T03:27:39.541Z,58.89
2022-08-05T03:28:37.845Z,57.95
2022-08-05T03:29:46.002Z,62.61
2022-08-05T03:30:38.207Z,60.89
2022-08-05T03:31:56.652Z,59.92
2022-08-05T03:32:37.792Z,59.43
2022-08-05T03:33:50.853Z,58.80
2022-08-05T03:34:37.814Z,60.43
2022-08-05T03:35:40.885Z,59.18
2022-08-05T03:36:37.764Z,61.22
2022-08-05T03:37:44.763Z,60.80
2022-08-05T03:38:37.733Z,60.94
2022-08-05T03:39:58.496Z,59.79
2022-08-05T03:40:37.747Z,59.87
2022-08-05T03:41:38.820Z,61.52
2022-08-05T03:42:51.505Z,63.27
2022-08-05T03:44:08.239Z,60.53
2022-08-05T03:44:37.710Z,61.50
2022-08-05T03:45:57.645Z,60.58
2022-08-05T03:46:37.672Z,61.33
2022-08-05T03:47:41.353Z,61.49
2022-08-05T03:48:37.659Z,62.63
2022-08-05T03:49:51.328Z,60.21
2022-08-05T03:50:37.681Z,59.85
2022-08-05T03:52:38.007Z,63.92
2022-08-05T03:55:00.377Z,62.31
2022-08-05T03:55:07.215Z,61.57
2022-08-05T03:55:52.517Z,60.31
2022-08-05T03:56:05.238Z,60.76
2022-08-05T03:56:37.609Z,65.03
2022-08-05T03:57:42.458Z,59.94
2022-08-05T03:58:37.574Z,60.64
2022-08-05T03:59:46.801Z,61.39
2022-08-05T04:00:37.555Z,63.01
2022-08-05T04:01:36.647Z,62.04
2022-08-05T04:02:38.327Z,61.22
2022-08-05T04:03:38.148Z,62.40
2022-08-05T04:04:36.528Z,61.47
2022-08-05T04:05:36.523Z,60.62
2022-08-05T04:06:36.512Z,62.09
2022-08-05T04:07:36.596Z,63.75
2022-08-05T04:08:37.527Z,63.32
2022-08-05T04:09:36.734Z,64.26
2022-08-05T04:10:38.325Z,63.38
2022-08-05T04:11:47.547Z,58.03
2022-08-05T04:14:30.035Z,59.56
2022-08-05T04:15:25.541Z,64.51
2022-08-05T04:16:32.332Z,59.59
2022-08-05T04:17:25.942Z,61.05
2022-08-05T04:18:25.700Z,60.16
2022-08-05T04:19:24.517Z,63.62
2022-08-05T04:20:24.485Z,61.57
2022-08-05T04:22:05.037Z,65.42
2022-08-05T04:22:26.581Z,61.68
2022-08-05T04:24:00.217Z,62.48
2022-08-05T04:24:25.522Z,63.88
2022-08-05T04:25:57.651Z,58.86
2022-08-05T04:26:25.444Z,63.86
2022-08-05T04:27:41.653Z,63.54
2022-08-05T04:28:30.974Z,62.91
2022-08-05T04:29:27.197Z,61.03
2022-08-05T04:30:24.436Z,64.05
2022-08-05T04:31:27.632Z,62.97
2022-08-05T04:32:31.222Z,61.28
2022-08-05T04:34:17.903Z,62.03
2022-08-05T04:34:32.561Z,58.94
2022-08-05T04:35:25.388Z,61.34
2022-08-05T04:36:46.569Z,63.50
2022-08-05T04:38:01.348Z,59.12
2022-08-05T04:38:39.604Z,58.05
2022-08-05T04:39:25.381Z,60.59
2022-08-05T04:40:24.328Z,63.43
2022-08-05T04:41:36.610Z,60.03
2022-08-05T04:42:25.642Z,61.45
2022-08-05T04:43:24.302Z,57.11
2022-08-05T04:44:29.667Z,58.47
2022-08-05T04:45:47.694Z,60.84
2022-08-05T04:46:27.823Z,61.59
2022-08-05T04:47:24.581Z,61.69
2022-08-05T04:48:27.719Z,63.40
2022-08-05T04:49:24.685Z,62.23
2022-08-05T04:50:37.179Z,60.33
2022-08-05T04:51:25.244Z,61.90
2022-08-05T04:52:24.257Z,63.36
2022-08-05T04:53:24.246Z,62.17
2022-08-05T04:54:24.220Z,63.16
2022-08-05T04:56:05.091Z,63.90
2022-08-05T04:56:34.828Z,63.79
2022-08-05T04:57:25.383Z,65.89
2022-08-05T04:58:24.203Z,66.13
2022-08-05T04:59:38.464Z,64.76
2022-08-05T05:00:25.177Z,65.92
2022-08-05T05:01:33.465Z,64.14
2022-08-05T05:02:36.136Z,63.66
2022-08-05T05:03:25.150Z,65.67
2022-08-05T05:04:25.167Z,65.28
2022-08-05T05:05:28.682Z,64.94
2022-08-05T05:06:39.850Z,62.89
2022-08-05T05:07:29.465Z,63.60
2022-08-05T05:08:29.911Z,61.02
2022-08-05T05:09:25.092Z,64.60
2022-08-05T05:10:24.114Z,62.31
2022-08-05T05:11:24.093Z,64.44
2022-08-05T05:12:27.476Z,65.10
2022-08-05T05:13:24.076Z,60.71
2022-08-05T05:14:27.839Z,64.63
2022-08-05T05:15:56.421Z,63.66
2022-08-05T05:16:25.041Z,64.05
2022-08-05T05:17:56.193Z,65.62
2022-08-05T05:18:28.297Z,62.37
2022-08-05T05:19:27.259Z,63.68
2022-08-05T05:20:28.308Z,62.79
2022-08-05T05:21:24.045Z,62.10
2022-08-05T05:22:26.513Z,60.81
2022-08-05T05:23:23.993Z,65.78
2022-08-05T05:24:24.042Z,63.13
2022-08-05T05:25:40.358Z,62.95
2022-08-05T05:26:28.343Z,62.63
2022-08-05T05:27:25.195Z,62.43
2022-08-05T05:28:24.970Z,61.36
2022-08-05T05:29:23.948Z,63.41
2022-08-05T05:30:31.203Z,61.59
2022-08-05T05:31:25.153Z,62.94
2022-08-05T05:32:23.923Z,63.85
2022-08-05T05:33:24.056Z,57.96
2022-08-05T05:34:26.990Z,60.96
2022-08-05T05:35:23.881Z,63.26
2022-08-05T05:36:23.868Z,61.07
2022-08-05T05:37:24.165Z,60.23
2022-08-05T05:38:27.124Z,59.83
2022-08-05T05:39:23.884Z,60.23
2022-08-05T05:40:25.807Z,60.58
2022-08-05T05:41:23.880Z,65.80
2022-08-05T05:42:23.825Z,62.60
2022-08-05T05:43:54.301Z,63.44
2022-08-05T05:44:37.527Z,62.33
2022-08-05T05:45:24.911Z,59.73
2022-08-05T05:46:23.796Z,61.79
2022-08-05T05:47:30.614Z,63.60
2022-08-05T05:48:27.497Z,65.20
2022-08-05T05:49:23.770Z,63.53
2022-08-05T05:50:23.756Z,62.15
2022-08-05T05:51:23.761Z,61.75
2022-08-05T05:52:25.492Z,62.23
2022-08-05T05:53:24.730Z,62.33
2022-08-05T05:54:49.898Z,63.83
2022-08-05T05:55:24.739Z,60.24
2022-08-05T05:56:26.133Z,64.98
2022-08-05T05:57:24.936Z,65.92
2022-08-05T05:58:32.026Z,63.24
2022-08-05T05:59:24.696Z,64.62
2022-08-05T06:00:31.451Z,63.89
2022-08-05T06:01:24.673Z,62.71
2022-08-05T06:02:32.531Z,59.95
2022-08-05T06:03:40.652Z,60.31
2022-08-05T06:04:24.723Z,61.34
2022-08-05T06:05:23.676Z,58.94
2022-08-05T06:06:23.630Z,59.17
2022-08-05T06:07:23.817Z,59.37
2022-08-05T06:08:32.548Z,62.21
2022-08-05T06:09:49.146Z,58.81
2022-08-05T06:10:24.608Z,61.12
2022-08-05T06:11:23.593Z,61.86
2022-08-05T06:12:23.600Z,62.76
2022-08-05T06:13:23.624Z,58.87
2022-08-05T06:14:23.583Z,60.96
2022-08-05T06:15:24.416Z,59.33
2022-08-05T06:16:28.193Z,59.13
2022-08-05T06:17:31.041Z,63.31
2022-08-05T06:18:30.992Z,62.85
2022-08-05T06:19:26.144Z,62.50
2022-08-05T06:20:24.543Z,61.45
2022-08-05T06:21:23.506Z,63.27
2022-08-05T06:22:24.501Z,60.49
2022-08-05T06:23:23.500Z,59.70
2022-08-05T06:24:25.836Z,61.95
2022-08-05T06:25:25.028Z,60.18
2022-08-05T06:26:25.068Z,61.12
2022-08-05T06:28:12.092Z,62.70
2022-08-05T06:28:27.011Z,63.19
2022-08-05T06:29:42.965Z,59.43
2022-08-05T06:32:50.949Z,62.90
2022-08-05T06:34:07.386Z,61.05
2022-08-05T06:34:53.613Z,62.20
2022-08-05T06:36:07.664Z,63.81
2022-08-05T06:36:57.601Z,61.15
2022-08-05T06:37:57.376Z,63.89
2022-08-05T06:38:51.529Z,64.85
2022-08-05T06:39:50.522Z,61.78
2022-08-05T06:40:50.531Z,63.52
2022-08-05T06:41:50.510Z,61.67
2022-08-05T06:42:52.029Z,64.78
2022-08-05T06:43:57.603Z,61.28
2022-08-05T06:44:51.476Z,61.69
2022-08-05T06:46:06.999Z,60.22
2022-08-05T06:46:51.467Z,59.76
2022-08-05T06:48:36.410Z,59.70
2022-08-05T06:48:59.011Z,59.36
2022-08-05T06:50:00.146Z,61.97
2022-08-05T06:50:51.469Z,62.15
2022-08-05T06:51:50.481Z,59.37
2022-08-05T06:52:58.436Z,58.83
2022-08-05T06:53:53.614Z,62.14
2022-08-05T06:54:52.088Z,61.30
2022-08-05T06:55:50.403Z,59.49
2022-08-05T06:56:55.092Z,57.43
2022-08-05T06:58:02.662Z,63.31
2022-08-05T06:58:51.369Z,61.77
2022-08-05T06:59:55.046Z,62.28
2022-08-05T07:00:51.403Z,62.15
2022-08-05T07:01:53.003Z,64.55
2022-08-05T07:02:53.741Z,62.70
2022-08-05T07:03:50.372Z,61.68
2022-08-05T07:04:50.337Z,60.22
2022-08-05T07:05:50.488Z,60.61
2022-08-05T07:06:50.601Z,58.89
2022-08-05T07:07:50.322Z,60.04
2022-08-05T07:08:51.926Z,60.27
2022-08-05T07:09:55.689Z,58.83
2022-08-05T07:10:53.177Z,62.18
2022-08-05T07:11:51.754Z,59.85
2022-08-05T07:12:50.462Z,61.34
2022-08-05T07:13:57.647Z,60.91
2022-08-05T07:14:54.010Z,59.29
2022-08-05T07:16:00.801Z,60.29
2022-08-05T07:17:57.181Z,56.40
2022-08-05T07:18:00.539Z,58.98
2022-08-05T07:18:51.222Z,58.99
2022-08-05T07:20:32.085Z,60.67
2022-08-05T07:20:51.188Z,61.51
2022-08-05T07:22:00.975Z,56.05
2022-08-05T07:22:51.267Z,59.72
2022-08-05T07:23:52.287Z,61.44
2022-08-05T07:24:53.582Z,60.68
2022-08-05T07:25:56.288Z,63.22
2022-08-05T07:26:51.351Z,60.28
2022-08-05T07:27:58.017Z,59.19
2022-08-05T07:28:51.147Z,62.43
2022-08-05T07:30:27.479Z,63.64
2022-08-05T07:30:54.740Z,62.75
2022-08-05T07:31:54.884Z,57.26
2022-08-05T07:32:53.525Z,62.73
2022-08-05T07:33:50.077Z,60.07
2022-08-05T07:34:50.121Z,62.43
2022-08-05T07:36:03.318Z,60.77
2022-08-05T07:36:51.217Z,62.01
2022-08-05T07:37:50.057Z,61.72
2022-08-05T07:38:54.792Z,62.40
2022-08-05T07:40:04.073Z,61.20
2022-08-05T07:40:55.655Z,60.44
2022-08-05T07:42:13.955Z,61.64
2022-08-05T07:42:51.009Z,59.66
2022-08-05T07:43:50.001Z,61.75
2022-08-05T07:44:49.995Z,61.17
2022-08-05T07:45:57.428Z,61.22
2022-08-05T07:46:50.965Z,61.78
2022-08-05T07:47:49.970Z,61.82
2022-08-05T07:49:02.857Z,59.27
2022-08-05T07:49:54.611Z,59.67
2022-08-05T07:50:49.942Z,60.46
2022-08-05T07:51:53.560Z,61.24
2022-08-05T07:52:49.913Z,64.12
2022-08-05T07:53:51.729Z,61.22
2022-08-05T07:54:49.974Z,61.88
2022-08-05T07:56:05.518Z,62.17
2022-08-05T07:57:12.889Z,58.48
2022-08-05T07:58:02.149Z,62.20
2022-08-05T07:58:55.059Z,61.27
2022-08-05T07:59:50.912Z,60.69
2022-08-05T08:00:49.887Z,62.17
2022-08-05T08:01:52.342Z,61.43
2022-08-05T08:03:13.945Z,59.91
2022-08-05T08:03:51.325Z,59.16
2022-08-05T08:04:49.938Z,64.07
2022-08-05T08:05:50.051Z,62.77
2022-08-05T08:06:49.948Z,59.38
2022-08-05T08:07:59.458Z,60.64
2022-08-05T08:08:50.777Z,62.20
2022-08-05T08:09:49.776Z,60.43
2022-08-05T08:10:49.760Z,61.21
2022-08-05T08:11:58.937Z,62.27
2022-08-05T08:12:50.774Z,62.13
2022-08-05T08:14:00.768Z,61.03
2022-08-05T08:14:50.728Z,61.74
2022-08-05T08:16:35.143Z,59.58
2022-08-05T08:16:53.364Z,61.92
2022-08-05T08:17:52.653Z,60.73
2022-08-05T08:18:49.937Z,61.47
2022-08-05T08:20:10.331Z,63.16
2022-08-05T08:21:02.070Z,59.10
2022-08-05T08:21:50.733Z,55.66
2022-08-05T08:22:49.654Z,57.16
2022-08-05T08:24:00.968Z,58.60
2022-08-05T08:24:51.961Z,61.34
2022-08-05T08:25:59.928Z,60.46
2022-08-05T08:26:50.632Z,58.01
2022-08-05T08:27:51.150Z,61.78
2022-08-05T08:28:49.731Z,60.51
2022-08-05T08:30:05.222Z,62.43
2022-08-05T08:30:50.657Z,61.17
2022-08-05T08:31:49.598Z,62.10
2022-08-05T08:32:49.622Z,60.06
2022-08-05T08:33:51.677Z,59.20
2022-08-05T08:34:49.590Z,60.31
2022-08-05T08:35:53.011Z,60.84
2022-08-05T08:36:55.831Z,60.60
2022-08-05T08:37:53.490Z,58.22
2022-08-05T08:38:53.448Z,57.80
2022-08-05T08:39:49.883Z,61.73
2022-08-05T08:40:51.793Z,61.20
2022-08-05T08:41:52.479Z,61.86
2022-08-05T08:42:52.737Z,62.68
2022-08-05T08:45:19.143Z,58.94
2022-08-05T08:45:24.311Z,59.99
2022-08-05T08:45:50.476Z,62.21
2022-08-05T08:46:49.463Z,63.24
2022-08-05T08:48:10.478Z,60.81
2022-08-05T08:49:07.982Z,62.74
2022-08-05T08:50:23.110Z,60.42
2022-08-05T08:51:03.901Z,60.70
2022-08-05T08:52:03.797Z,62.62
2022-08-05T08:52:51.775Z,60.95
2022-08-05T08:53:49.443Z,61.37
2022-08-05T08:54:49.590Z,60.31
2022-08-05T08:56:04.621Z,60.53
2022-08-05T08:56:50.406Z,60.11
2022-08-05T08:57:58.271Z,60.60
2022-08-05T08:58:50.627Z,61.02
2022-08-05T08:59:49.379Z,61.07
2022-08-05T09:00:49.406Z,59.61
2022-08-05T09:01:57.275Z,62.25
2022-08-05T09:02:50.381Z,60.44
2022-08-05T09:03:55.459Z,62.67
2022-08-05T09:05:15.911Z,60.82
2022-08-05T09:06:09.149Z,63.78
2022-08-05T09:06:50.326Z,61.51
2022-08-05T09:07:58.087Z,58.01
2022-08-05T09:08:50.291Z,62.94
2022-08-05T09:09:49.281Z,62.69
2022-08-05T09:10:49.282Z,60.72
2022-08-05T09:11:51.612Z,59.37
2022-08-05T09:12:51.033Z,56.56
2022-08-05T09:14:00.846Z,58.92
2022-08-05T09:14:57.765Z,59.90
2022-08-05T09:15:50.251Z,62.50
2022-08-05T09:16:49.270Z,60.03
2022-08-05T09:17:49.444Z,59.79
2022-08-05T09:18:49.234Z,59.99
2022-08-05T09:19:55.428Z,59.55
2022-08-05T09:20:50.212Z,59.06
2022-08-05T09:22:21.746Z,63.27
2022-08-05T09:22:51.837Z,60.84
2022-08-05T09:23:49.159Z,57.35
2022-08-05T09:24:49.155Z,59.10
2022-08-05T09:26:03.274Z,62.14
2022-08-05T09:26:51.890Z,59.65
2022-08-05T09:28:04.744Z,60.88
2022-08-05T09:28:50.129Z,59.02
2022-08-05T09:29:49.109Z,59.10
2022-08-05T09:30:49.356Z,56.74
2022-08-05T09:32:41.297Z,60.57
2022-08-05T09:32:50.219Z,60.87
2022-08-05T09:33:49.086Z,58.77
2022-08-05T09:34:49.123Z,58.65
2022-08-05T09:35:49.077Z,57.61
2022-08-05T09:36:56.132Z,59.17
2022-08-05T09:38:17.046Z,56.87
2022-08-05T09:38:50.076Z,61.51
2022-08-05T09:39:52.309Z,57.65
2022-08-05T09:40:53.763Z,59.21
2022-08-05T09:41:56.165Z,58.69
2022-08-05T09:42:49.994Z,58.08
2022-08-05T09:43:49.445Z,59.46
2022-08-05T09:44:50.427Z,59.21
2022-08-05T09:46:06.568Z,56.43
2022-08-05T09:46:53.558Z,58.46
2022-08-05T09:47:55.909Z,58.14
2022-08-05T09:49:06.634Z,59.38
2022-08-05T09:50:01.151Z,62.30
2022-08-05T09:50:49.970Z,60.70
2022-08-05T09:51:50.189Z,61.07
2022-08-05T09:52:52.959Z,59.72
2022-08-05T09:53:54.669Z,57.93
2022-08-05T09:54:49.921Z,58.03
2022-08-05T09:55:57.087Z,61.30
2022-08-05T09:56:51.853Z,61.74
2022-08-05T09:57:48.924Z,61.38
2022-08-05T09:58:50.359Z,62.35
2022-08-05T09:59:48.935Z,62.45
2022-08-05T10:00:48.862Z,60.56
2022-08-05T10:01:48.868Z,60.94
2022-08-05T10:02:49.894Z,61.12
2022-08-05T10:03:59.194Z,61.28
2022-08-05T10:04:49.829Z,60.61
2022-08-05T10:05:48.815Z,61.84
2022-08-05T10:06:49.825Z,61.95
2022-08-05T10:08:10.680Z,62.02
2022-08-05T10:08:53.796Z,60.99
2022-08-05T10:09:48.792Z,60.69
2022-08-05T10:10:53.878Z,61.49
2022-08-05T10:11:48.878Z,62.35
2022-08-05T10:12:49.856Z,61.25
2022-08-05T10:13:49.184Z,62.47
2022-08-05T10:14:48.743Z,61.15
2022-08-05T10:15:48.743Z,59.91
2022-08-05T10:16:53.015Z,60.63
2022-08-05T10:17:56.866Z,60.20
2022-08-05T10:18:49.738Z,60.83
2022-08-05T10:20:03.116Z,59.51
2022-08-05T10:20:49.702Z,58.65
2022-08-05T10:21:48.686Z,58.81
2022-08-05T10:22:51.074Z,56.49
2022-08-05T10:23:59.946Z,59.21
2022-08-05T10:24:49.666Z,60.22
2022-08-05T10:25:48.684Z,59.78
2022-08-05T10:26:51.232Z,57.71
2022-08-05T10:28:13.381Z,54.64
2022-08-05T10:28:49.709Z,58.47
2022-08-05T10:30:41.297Z,58.72
2022-08-05T10:32:49.511Z,59.33
2022-08-05T10:32:54.150Z,55.38
2022-08-05T10:33:00.678Z,55.10
2022-08-05T10:33:54.300Z,59.05
2022-08-05T10:34:49.620Z,57.15
2022-08-05T10:35:59.934Z,57.80
2022-08-05T10:36:49.574Z,58.16
2022-08-05T10:37:48.561Z,58.09
2022-08-05T10:38:48.584Z,60.60
2022-08-05T10:40:03.063Z,60.99
2022-08-05T10:40:49.618Z,59.73
2022-08-05T10:41:49.063Z,60.88
2022-08-05T10:42:48.576Z,59.34
2022-08-05T10:43:48.648Z,61.23
2022-08-05T10:44:48.497Z,60.00
2022-08-05T10:45:48.498Z,57.63
2022-08-05T10:46:50.950Z,60.25
2022-08-05T10:48:29.888Z,59.89
2022-08-05T10:48:57.085Z,56.77
2022-08-05T10:50:32.065Z,59.89
2022-08-05T10:50:49.479Z,60.40
2022-08-05T10:51:58.273Z,59.50
2022-08-05T10:52:49.947Z,61.07
2022-08-05T10:53:48.432Z,60.20
2022-08-05T10:54:56.053Z,60.94
2022-08-05T10:56:05.150Z,60.17
2022-08-05T10:56:49.596Z,62.49
2022-08-05T10:57:51.339Z,58.86
2022-08-05T10:58:49.592Z,60.51
2022-08-05T11:00:02.127Z,59.14
2022-08-05T11:00:55.465Z,59.32
2022-08-05T11:02:03.842Z,59.43
2022-08-05T11:02:50.665Z,60.39
2022-08-05T11:03:48.451Z,61.45
2022-08-05T11:04:48.408Z,61.17
2022-08-05T11:05:48.378Z,60.69
2022-08-05T11:06:48.350Z,59.88
2022-08-05T11:08:01.761Z,60.67
2022-08-05T11:08:49.341Z,59.99
2022-08-05T11:09:48.325Z,60.80
2022-08-05T11:10:59.997Z,60.71
2022-08-05T11:11:53.378Z,62.12
2022-08-05T11:12:54.160Z,61.48
2022-08-05T11:13:58.046Z,61.32
2022-08-05T11:15:11.426Z,60.20
2022-08-05T11:16:00.597Z,58.71
2022-08-05T11:16:57.738Z,62.16
2022-08-05T11:17:57.014Z,60.91
2022-08-05T11:18:49.242Z,58.65
2022-08-05T11:20:10.500Z,58.25
2022-08-05T11:20:49.340Z,58.53
2022-08-05T11:21:49.345Z,58.88
2022-08-05T11:22:50.004Z,58.67
2022-08-05T11:24:04.590Z,59.63
2022-08-05T11:24:50.774Z,57.71
2022-08-05T11:26:05.595Z,56.53
2022-08-05T11:26:49.662Z,56.96
2022-08-05T11:27:51.748Z,58.07
2022-08-05T11:28:49.170Z,55.36
2022-08-05T11:29:48.189Z,58.22
2022-08-05T11:30:48.166Z,56.34
2022-08-05T11:31:57.909Z,53.69
2022-08-05T11:32:49.160Z,55.29
2022-08-05T11:33:48.371Z,56.16
2022-08-05T11:34:53.958Z,56.88
2022-08-05T11:36:08.076Z,58.78
2022-08-05T11:36:52.902Z,58.38
2022-08-05T11:38:30.693Z,57.45
2022-08-05T11:38:51.040Z,54.76
2022-08-05T11:39:48.413Z,57.82
2022-08-05T11:40:48.074Z,58.84
2022-08-05T11:42:00.801Z,59.27
2022-08-05T11:42:49.163Z,59.98
2022-08-05T11:44:05.094Z,59.17
2022-08-05T11:44:54.013Z,60.17
2022-08-05T11:46:14.996Z,58.93
2022-08-05T11:47:09.218Z,58.92
2022-08-05T11:47:50.662Z,57.06
2022-08-05T11:48:49.019Z,59.44
2022-08-05T11:49:49.781Z,60.39
2022-08-05T11:50:47.981Z,60.10
2022-08-05T11:51:49.527Z,59.15
2022-08-05T11:52:48.799Z,59.80
2022-08-05T11:53:48.193Z,59.74
2022-08-05T11:54:48.493Z,60.09
2022-08-05T11:55:48.939Z,59.35
2022-08-05T11:56:50.328Z,59.33
2022-08-05T11:58:10.795Z,59.55
2022-08-05T11:58:53.142Z,57.19
2022-08-05T11:59:49.914Z,58.72
2022-08-05T12:00:47.914Z,59.72
2022-08-05T12:01:48.655Z,59.81
2022-08-05T12:02:48.014Z,62.17
2022-08-05T12:03:55.816Z,60.44
2022-08-05T12:04:59.051Z,59.78
2022-08-05T12:05:48.857Z,60.55
2022-08-05T12:06:48.949Z,58.22
2022-08-05T12:08:03.577Z,60.90
2022-08-05T12:08:50.861Z,60.72
2022-08-05T12:09:53.358Z,59.90
2022-08-05T12:10:48.900Z,59.25
2022-08-05T12:11:47.958Z,61.07
2022-08-05T12:12:59.445Z,60.56
2022-08-05T12:13:49.995Z,59.97
2022-08-05T12:14:47.803Z,61.05
2022-08-05T12:15:50.220Z,60.85
2022-08-05T12:16:47.798Z,61.05
2022-08-05T12:18:03.242Z,59.22
2022-08-05T12:18:52.996Z,58.90
2022-08-05T12:20:26.436Z,60.05
2022-08-05T12:20:48.741Z,60.57
2022-08-05T12:21:47.740Z,59.38
2022-08-05T12:22:47.771Z,60.81
2022-08-05T12:23:47.716Z,58.92
2022-08-05T12:24:49.637Z,60.67
2022-08-05T12:25:47.731Z,60.06
2022-08-05T12:26:47.730Z,59.60
2022-08-05T12:27:53.253Z,61.83
2022-08-05T12:28:48.722Z,61.11
2022-08-05T12:29:56.807Z,59.05
2022-08-05T12:30:48.677Z,61.08
2022-08-05T12:31:50.139Z,61.56
2022-08-05T12:32:50.435Z,59.55
2022-08-05T12:33:47.626Z,57.03
2022-08-05T12:34:47.713Z,60.09
2022-08-05T12:35:47.646Z,59.07
2022-08-05T12:36:47.615Z,59.04
2022-08-05T12:37:47.615Z,60.93
2022-08-05T12:38:47.632Z,59.50
2022-08-05T12:39:48.765Z,60.15
2022-08-05T12:40:47.587Z,59.24
2022-08-05T12:41:47.588Z,59.68
2022-08-05T12:42:47.606Z,59.76
2022-08-05T12:43:47.552Z,60.07
2022-08-05T12:44:47.863Z,60.67
2022-08-05T12:45:49.694Z,60.69
2022-08-05T12:46:47.611Z,61.63
2022-08-05T12:48:17.526Z,59.05
2022-08-05T12:48:48.546Z,58.16
2022-08-05T12:50:04.277Z,59.71
2022-08-05T12:50:48.526Z,63.07
2022-08-05T12:52:13.514Z,61.31
2022-08-05T12:52:48.480Z,60.10
2022-08-05T12:53:55.845Z,61.33
2022-08-05T12:54:48.465Z,60.26
2022-08-05T12:55:47.470Z,60.87
2022-08-05T12:56:47.454Z,60.15